Time;durP1;ratioP1;P1;durP2;ratioP2;P2;SDS_P1;SDS_P2;PMS_P1;PMS_P2;Temp;Humidity;BMP_temperature;BMP_pressure;BME280_temperature;BME280_humidity;BME280_pressure;Samples;Min_cycle;Max_cycle;Signal;HPM_P1;HPM_P2
2022/12/25 00:01:05;;;;;;;48.03;8.87;;;5.60;1.00;;;;;;4933525;29;20441;-59
2022/12/25 00:03:30;;;;;;;31.30;10.33;;;5.60;1.00;;;;;;4926101;29;20675;-59
2022/12/25 00:05:58;;;;;;;34.97;9.80;;;5.50;1.00;;;;;;4933280;29;20427;-60
2022/12/25 00:08:23;;;;;;;49.07;10.80;;;5.50;1.00;;;;;;4923776;29;20542;-59
2022/12/25 00:11:00;;;;;;;35.47;9.83;;;5.40;1.00;;;;;;4926462;29;20462;-59
2022/12/25 00:13:26;;;;;;;29.87;9.70;;;5.40;1.00;;;;;;4926659;29;20905;-59
2022/12/25 00:15:51;;;;;;;40.00;11.10;;;5.30;1.00;;;;;;4933550;29;20441;-59
2022/12/25 00:18:17;;;;;;;31.70;10.23;;;5.30;1.90;;;;;;4926751;29;20214;-59
2022/12/25 00:20:42;;;;;;;43.67;11.50;;;5.30;8.50;;;;;;4932308;29;20582;-59
2022/12/25 00:23:08;;;;;;;25.23;10.60;;;5.30;18.40;;;;;;4928090;29;20191;-59
2022/12/25 00:25:33;;;;;;;33.67;10.53;;;5.30;25.30;;;;;;4932760;29;20194;-52
2022/12/25 00:27:59;;;;;;;29.60;10.33;;;5.30;29.10;;;;;;4927953;29;20197;-51
2022/12/25 00:30:24;;;;;;;35.73;11.13;;;5.20;31.00;;;;;;4933927;29;20633;-51
2022/12/25 00:32:50;;;;;;;33.97;11.23;;;5.20;34.10;;;;;;4921263;29;20205;-51
2022/12/25 00:35:15;;;;;;;34.13;11.37;;;5.10;35.30;;;;;;4916843;29;20198;-51
2022/12/25 00:37:41;;;;;;;36.90;10.77;;;5.00;35.40;;;;;;4928227;29;20222;-52
2022/12/25 00:40:07;;;;;;;44.47;11.73;;;5.00;36.00;;;;;;4923588;29;20197;-51
2022/12/25 00:42:33;;;;;;;41.13;12.57;;;5.00;40.50;;;;;;4926891;29;20548;-52
2022/12/25 00:45:00;;;;;;;28.40;10.33;;;5.00;51.90;;;;;;4930869;29;20446;-51
2022/12/25 00:47:25;;;;;;;49.83;10.97;;;5.00;58.10;;;;;;4925953;29;20273;-51
2022/12/25 00:49:51;;;;;;;34.47;11.50;;;5.00;60.10;;;;;;4933345;29;20891;-51
2022/12/25 00:52:17;;;;;;;36.10;11.40;;;4.90;66.80;;;;;;4927693;29;20225;-51
2022/12/25 00:54:42;;;;;;;41.50;13.67;;;5.00;74.00;;;;;;4916470;29;20241;-51
2022/12/25 00:57:08;;;;;;;57.00;12.00;;;4.90;79.00;;;;;;4921899;29;20206;-51
2022/12/25 00:59:34;;;;;;;25.37;10.93;;;4.90;83.70;;;;;;4927895;29;20186;-51
2022/12/25 01:02:22;;;;;;;29.23;11.17;;;4.80;85.20;;;;;;4928226;29;20633;-51
2022/12/25 01:04:45;;;;;;;33.40;11.77;;;4.70;85.90;;;;;;4928751;29;20792;-51
2022/12/25 01:07:11;;;;;;;41.20;11.93;;;4.70;90.20;;;;;;4919823;29;20443;-51
2022/12/25 01:12:21;;;;;;;37.87;12.00;;;4.60;92.30;;;;;;4923201;29;20206;-51
2022/12/25 01:14:47;;;;;;;30.60;10.70;;;4.60;95.70;;;;;;4918015;29;20431;-51
2022/12/25 01:17:13;;;;;;;28.97;11.60;;;4.60;98.60;;;;;;4922372;29;20274;-51
2022/12/25 01:19:38;;;;;;;35.70;12.50;;;4.50;99.90;;;;;;4929239;29;20194;-51
2022/12/25 01:22:04;;;;;;;39.60;11.83;;;4.50;99.90;;;;;;4930732;29;20190;-51
2022/12/25 01:24:29;;;;;;;36.03;11.83;;;4.40;99.90;;;;;;4935369;29;20667;-52
2022/12/25 01:26:55;;;;;;;43.53;13.07;;;4.40;99.90;;;;;;4927839;29;20198;-51
2022/12/25 01:29:20;;;;;;;36.90;12.03;;;4.40;99.90;;;;;;4923709;29;20278;-51
2022/12/25 01:31:46;;;;;;;34.33;11.93;;;4.40;99.90;;;;;;4930895;29;20198;-51
2022/12/25 01:34:12;;;;;;;52.93;13.23;;;4.30;99.90;;;;;;4925355;29;20300;-55
2022/12/25 01:36:37;;;;;;;41.33;13.97;;;4.30;99.90;;;;;;4930826;29;20197;-52
2022/12/25 01:39:04;;;;;;;39.57;13.67;;;4.30;99.90;;;;;;4926605;29;20215;-51
2022/12/25 01:41:29;;;;;;;42.80;13.63;;;4.20;99.90;;;;;;4925032;29;20199;-51
2022/12/25 01:43:58;;;;;;;33.70;12.40;;;4.20;99.90;;;;;;4919312;29;20441;-51
2022/12/25 01:46:23;;;;;;;40.33;13.57;;;4.20;99.90;;;;;;4930917;29;20193;-51
2022/12/25 01:48:50;;;;;;;47.83;13.83;;;4.20;99.90;;;;;;4928451;29;20467;-50
2022/12/25 01:51:36;;;;;;;44.20;13.50;;;4.20;99.90;;;;;;4933427;29;20203;-51
2022/12/25 01:54:06;;;;;;;48.00;14.17;;;4.20;99.90;;;;;;4920552;29;20483;-51
2022/12/25 01:56:35;;;;;;;34.90;12.70;;;4.10;99.90;;;;;;4935012;29;20442;-51
2022/12/25 01:59:01;;;;;;;42.10;14.10;;;4.10;99.90;;;;;;4922585;29;20485;-50
2022/12/25 02:01:27;;;;;;;49.10;13.30;;;4.10;99.90;;;;;;4933864;29;20477;-51
2022/12/25 02:03:56;;;;;;;43.20;13.90;;;4.10;99.90;;;;;;4912803;29;20466;-51
2022/12/25 02:06:22;;;;;;;43.77;12.03;;;4.10;99.90;;;;;;4935922;29;20190;-51
2022/12/25 02:08:48;;;;;;;51.17;14.07;;;4.20;99.90;;;;;;4929887;29;20812;-50
2022/12/25 02:11:55;;;;;;;47.70;13.97;;;4.30;99.90;;;;;;4921188;29;20653;-50
2022/12/25 02:14:00;;;;;;;42.70;13.70;;;4.50;99.90;;;;;;4929838;29;20837;-51
2022/12/25 02:16:31;;;;;;;42.83;13.20;;;4.70;99.90;;;;;;4935673;29;20430;-51
2022/12/25 02:19:06;;;;;;;50.90;14.07;;;4.70;99.90;;;;;;4928165;29;20225;-51
2022/12/25 02:22:12;;;;;;;63.87;15.37;;;4.70;99.90;;;;;;4932913;29;20516;-51
2022/12/25 02:24:48;;;;;;;52.93;13.60;;;4.70;99.90;;;;;;4899953;29;20812;-51
2022/12/25 02:27:41;;;;;;;52.93;13.90;;;4.70;99.90;;;;;;4926055;29;20474;-50
2022/12/25 02:30:08;;;;;;;50.60;14.40;;;4.70;99.90;;;;;;4921654;29;20513;-51
2022/12/25 02:32:48;;;;;;;40.07;13.50;;;4.70;99.90;;;;;;4922922;29;20446;-50
2022/12/25 02:35:25;;;;;;;59.37;14.30;;;4.70;99.90;;;;;;4923377;29;20492;-50
2022/12/25 02:38:16;;;;;;;42.63;12.37;;;4.60;99.90;;;;;;4920912;29;20470;-50
2022/12/25 02:40:48;;;;;;;49.43;15.00;;;4.60;99.90;;;;;;4919137;29;20442;-51
2022/12/25 03:06:57;;;;;;;45.87;13.90;;;3.80;99.90;;;;;;4933078;29;20461;-50
2022/12/25 03:12:42;;;;;;;34.73;13.17;;;3.70;99.90;;;;;;4916488;29;20426;-50
2022/12/25 03:17:57;;;;;;;47.33;13.73;;;3.60;99.90;;;;;;4932959;29;20478;-50
2022/12/25 03:28:38;;;;;;;50.00;16.83;;;3.50;99.90;;;;;;4926184;29;20473;-50
2022/12/25 03:31:15;;;;;;;49.03;16.30;;;3.50;99.90;;;;;;4919492;29;20439;-51
2022/12/25 04:37:58;;;;;;;48.67;18.70;;;4.60;99.90;;;;;;4914754;29;20462;-51
2022/12/25 04:40:24;;;;;;;57.83;21.30;;;4.70;99.90;;;;;;4932037;29;20454;-50
2022/12/25 04:42:50;;;;;;;54.63;21.17;;;4.60;99.90;;;;;;4933565;29;20195;-51
2022/12/25 04:45:16;;;;;;;58.97;20.70;;;4.70;99.90;;;;;;4936986;29;20194;-50
2022/12/25 04:47:42;;;;;;;60.10;21.40;;;4.70;99.90;;;;;;4937324;29;20426;-52
2022/12/25 04:50:08;;;;;;;61.90;19.60;;;4.60;99.90;;;;;;4935573;29;20238;-50
2022/12/25 04:52:39;;;;;;;47.17;19.47;;;4.50;99.90;;;;;;4920730;29;20209;-54
2022/12/25 04:55:06;;;;;;;55.93;19.20;;;4.40;99.90;;;;;;4919170;29;20449;-50
2022/12/25 04:57:32;;;;;;;51.67;20.03;;;4.40;99.90;;;;;;4934110;29;20548;-50
2022/12/25 04:59:58;;;;;;;48.27;19.17;;;4.40;99.90;;;;;;4928208;29;20927;-51
2022/12/25 05:02:24;;;;;;;52.83;16.73;;;4.30;99.90;;;;;;4932955;29;20479;-50
2022/12/25 05:04:49;;;;;;;56.33;18.80;;;4.30;99.90;;;;;;4920399;29;20187;-50
2022/12/25 05:07:15;;;;;;;58.50;18.73;;;4.40;99.90;;;;;;4928590;29;20198;-50
2022/12/25 05:09:40;;;;;;;42.20;16.53;;;4.30;99.90;;;;;;4923703;29;20210;-51
2022/12/25 05:12:07;;;;;;;44.70;14.47;;;4.40;99.90;;;;;;4937385;29;20222;-51
2022/12/25 05:14:33;;;;;;;39.57;15.20;;;4.30;99.90;;;;;;4926986;29;20798;-50
2022/12/25 05:16:58;;;;;;;47.33;15.90;;;4.30;99.90;;;;;;4937509;29;20505;-52
2022/12/25 05:19:25;;;;;;;44.90;15.80;;;4.40;99.90;;;;;;4935506;29;20611;-51
2022/12/25 05:21:51;;;;;;;39.80;15.40;;;4.40;99.90;;;;;;4935569;29;20190;-50
2022/12/25 05:24:17;;;;;;;45.20;16.47;;;4.40;99.90;;;;;;4929564;29;20430;-50
2022/12/25 05:26:43;;;;;;;44.20;16.33;;;4.40;99.90;;;;;;4921707;29;20458;-50
2022/12/25 05:29:08;;;;;;;47.97;16.33;;;4.40;99.90;;;;;;4935316;29;20199;-50
2022/12/25 05:31:34;;;;;;;43.00;16.33;;;4.50;99.90;;;;;;4934631;29;20201;-51
2022/12/25 05:33:59;;;;;;;44.63;15.53;;;4.40;99.90;;;;;;4933851;29;20198;-50
2022/12/25 05:36:25;;;;;;;39.13;15.23;;;4.40;99.90;;;;;;4925796;29;20210;-50
2022/12/25 05:38:51;;;;;;;57.73;17.23;;;4.40;99.90;;;;;;4936139;29;20214;-51
2022/12/25 05:41:16;;;;;;;41.17;15.27;;;4.40;99.90;;;;;;4929439;29;20187;-50
2022/12/25 05:43:42;;;;;;;43.50;15.87;;;4.50;99.90;;;;;;4924036;29;20680;-51
2022/12/25 05:46:09;;;;;;;49.63;16.40;;;4.50;99.90;;;;;;4923472;29;20194;-50
2022/12/25 05:48:36;;;;;;;37.90;14.53;;;4.40;99.90;;;;;;4921888;29;20238;-51
2022/12/25 05:51:06;;;;;;;45.23;15.40;;;4.50;99.90;;;;;;4928382;29;20450;-50
2022/12/25 05:53:32;;;;;;;37.70;15.53;;;4.50;99.90;;;;;;4921105;29;20434;-51
2022/12/25 05:56:02;;;;;;;36.47;16.83;;;4.50;99.90;;;;;;4923024;29;20489;-51
2022/12/25 05:58:28;;;;;;;37.40;15.20;;;4.50;99.90;;;;;;4928165;29;20466;-51
2022/12/25 06:00:53;;;;;;;37.50;16.73;;;4.50;99.90;;;;;;4931918;29;20442;-51
2022/12/25 06:03:19;;;;;;;43.33;15.70;;;4.50;99.90;;;;;;4919421;29;20464;-51
2022/12/25 06:05:45;;;;;;;39.30;16.70;;;4.60;99.90;;;;;;4923632;29;20194;-51
2022/12/25 06:08:10;;;;;;;43.53;17.03;;;4.60;99.90;;;;;;4917702;29;20246;-51
2022/12/25 06:10:36;;;;;;;44.87;15.00;;;4.50;99.90;;;;;;4925819;29;20199;-51
2022/12/25 06:13:02;;;;;;;37.37;15.00;;;4.50;99.90;;;;;;4926441;29;20198;-51
2022/12/25 06:15:28;;;;;;;31.40;14.20;;;4.40;99.90;;;;;;4927749;29;20568;-51
2022/12/25 06:17:53;;;;;;;32.57;14.77;;;4.40;99.90;;;;;;4926264;29;20466;-51
2022/12/25 06:20:20;;;;;;;45.97;16.13;;;4.40;99.90;;;;;;4933605;29;20527;-51
2022/12/25 06:22:45;;;;;;;34.80;13.83;;;4.40;99.90;;;;;;4933064;29;20182;-51
2022/12/25 06:25:11;;;;;;;42.77;17.53;;;4.30;99.90;;;;;;4924358;29;20435;-50
2022/12/25 06:27:37;;;;;;;47.07;14.07;;;4.30;99.90;;;;;;4922714;29;20249;-51
2022/12/25 06:30:04;;;;;;;39.60;15.10;;;4.30;99.90;;;;;;4931272;29;20190;-50
2022/12/25 06:32:29;;;;;;;43.10;14.80;;;4.20;99.90;;;;;;4923177;29;20273;-51
2022/12/25 06:34:55;;;;;;;41.80;15.53;;;4.30;99.90;;;;;;4934564;29;20525;-51
2022/12/25 06:37:20;;;;;;;43.60;16.03;;;4.30;99.90;;;;;;4930861;29;20206;-51
2022/12/25 06:39:46;;;;;;;44.03;16.10;;;4.30;99.90;;;;;;4924591;29;20187;-51
2022/12/25 06:42:12;;;;;;;33.03;15.00;;;4.20;99.90;;;;;;4922875;29;20222;-51
2022/12/25 06:44:38;;;;;;;39.90;16.50;;;4.30;99.90;;;;;;4930138;29;20511;-50
2022/12/25 06:47:04;;;;;;;33.23;15.73;;;4.40;99.90;;;;;;4916879;29;20191;-50
2022/12/25 06:49:29;;;;;;;41.73;16.70;;;4.40;99.90;;;;;;4906216;29;20234;-51
2022/12/25 06:51:55;;;;;;;45.33;16.20;;;4.50;99.90;;;;;;4932068;29;20204;-51
2022/12/25 06:54:20;;;;;;;47.53;16.40;;;4.50;99.90;;;;;;4927603;29;20233;-51
2022/12/25 06:56:46;;;;;;;47.27;15.87;;;4.50;99.90;;;;;;4923221;29;20198;-51
2022/12/25 06:59:12;;;;;;;44.33;16.37;;;4.60;99.90;;;;;;4933814;29;20221;-51
2022/12/25 07:01:45;;;;;;;37.57;14.90;;;4.60;99.90;;;;;;4935538;29;20446;-51
2022/12/25 07:04:19;;;;;;;38.10;15.40;;;4.50;99.90;;;;;;4933681;29;20198;-54
2022/12/25 07:06:45;;;;;;;50.83;17.30;;;4.50;99.90;;;;;;4918511;29;20442;-51
2022/12/25 07:09:10;;;;;;;35.70;15.70;;;4.50;99.90;;;;;;4932918;29;20442;-51
2022/12/25 07:11:36;;;;;;;38.93;16.20;;;4.60;99.90;;;;;;4927251;29;20191;-50
2022/12/25 07:14:02;;;;;;;44.47;15.73;;;4.50;99.90;;;;;;4918768;29;20218;-50
2022/12/25 07:16:27;;;;;;;39.70;15.93;;;4.60;99.90;;;;;;4934987;29;20182;-51
2022/12/25 07:18:53;;;;;;;41.03;16.03;;;4.60;99.90;;;;;;4932930;29;20221;-51
2022/12/25 07:21:20;;;;;;;45.87;15.93;;;4.60;99.90;;;;;;4920309;29;20203;-51
2022/12/25 07:23:47;;;;;;;39.60;16.53;;;4.60;99.90;;;;;;4930228;29;20206;-51
2022/12/25 07:26:13;;;;;;;33.97;17.20;;;4.50;99.90;;;;;;4928582;29;20458;-51
2022/12/25 07:28:39;;;;;;;43.70;16.20;;;4.60;99.90;;;;;;4920080;29;20451;-50
2022/12/25 07:31:15;;;;;;;53.90;17.93;;;4.60;99.90;;;;;;4928110;29;20465;-51
2022/12/25 07:33:41;;;;;;;42.30;16.70;;;4.50;99.90;;;;;;4933519;29;20783;-51
2022/12/25 07:36:07;;;;;;;40.97;16.37;;;4.50;99.90;;;;;;4932396;29;20453;-51
2022/12/25 07:38:33;;;;;;;37.27;17.07;;;4.50;99.90;;;;;;4934481;29;20233;-51
2022/12/25 07:40:59;;;;;;;39.50;17.23;;;4.60;99.90;;;;;;4924935;29;20810;-51
2022/12/25 07:43:25;;;;;;;43.13;18.43;;;4.60;99.90;;;;;;4920096;29;20450;-51
2022/12/25 07:45:59;;;;;;;42.03;17.80;;;4.60;99.90;;;;;;4932661;29;20893;-51
2022/12/25 07:48:25;;;;;;;46.87;18.87;;;4.60;99.90;;;;;;4932281;29;20200;-51
2022/12/25 07:51:03;;;;;;;37.33;18.67;;;4.60;99.90;;;;;;4930478;29;20466;-51
2022/12/25 07:53:29;;;;;;;48.43;19.40;;;4.60;99.90;;;;;;4934443;29;20434;-52
2022/12/25 07:56:00;;;;;;;48.70;19.43;;;4.70;99.90;;;;;;4925682;29;20438;-51
2022/12/25 07:58:27;;;;;;;46.13;21.10;;;4.70;99.90;;;;;;4932087;29;20233;-51
2022/12/25 08:00:53;;;;;;;49.47;20.97;;;4.70;99.90;;;;;;4926055;29;20438;-51
2022/12/25 08:03:19;;;;;;;45.53;21.10;;;4.80;99.90;;;;;;4925085;29;20498;-51
2022/12/25 08:05:45;;;;;;;51.20;19.40;;;4.90;99.90;;;;;;4929928;29;20194;-51
2022/12/25 08:08:10;;;;;;;55.77;18.57;;;4.90;99.90;;;;;;4930151;29;20228;-51
2022/12/25 08:10:36;;;;;;;40.50;19.00;;;5.00;99.90;;;;;;4928957;29;20660;-51
2022/12/25 08:13:01;;;;;;;48.50;18.77;;;5.00;99.90;;;;;;4921034;29;21906;-51
2022/12/25 08:15:29;;;;;;;56.20;16.63;;;5.10;99.90;;;;;;4931448;29;20186;-51
2022/12/25 08:17:55;;;;;;;49.80;15.97;;;5.10;99.90;;;;;;4933515;29;20218;-52
2022/12/25 08:20:20;;;;;;;40.87;14.87;;;5.10;99.90;;;;;;4936347;29;20449;-51
2022/12/25 08:22:46;;;;;;;46.57;14.40;;;5.20;99.90;;;;;;4926469;29;20202;-52
2022/12/25 08:25:12;;;;;;;39.33;14.57;;;5.20;99.90;;;;;;4933951;29;20198;-51
2022/12/25 08:27:37;;;;;;;36.33;14.00;;;5.30;99.90;;;;;;4935975;29;20589;-52
2022/12/25 08:30:03;;;;;;;37.63;14.17;;;5.40;99.90;;;;;;4926405;29;20186;-51
2022/12/25 08:32:32;;;;;;;35.43;14.33;;;5.40;99.90;;;;;;4935451;29;20213;-51
2022/12/25 08:34:57;;;;;;;36.40;13.53;;;5.40;99.90;;;;;;4936274;29;20450;-52
2022/12/25 08:37:23;;;;;;;43.57;15.53;;;5.50;99.90;;;;;;4932997;29;20935;-51
2022/12/25 08:39:48;;;;;;;44.37;12.73;;;5.50;99.90;;;;;;4940438;29;20571;-51
2022/12/25 08:42:14;;;;;;;38.37;14.47;;;5.50;99.90;;;;;;4936955;29;20186;-57
2022/12/25 08:44:39;;;;;;;41.27;14.37;;;5.50;99.90;;;;;;4930280;29;20260;-51
2022/12/25 08:47:05;;;;;;;42.53;14.57;;;5.60;99.90;;;;;;4919581;29;20273;-59
2022/12/25 08:49:30;;;;;;;40.90;14.93;;;5.60;99.90;;;;;;4938694;29;20237;-58
2022/12/25 08:51:56;;;;;;;38.00;14.33;;;5.60;99.90;;;;;;4929170;29;20203;-60
2022/12/25 08:54:23;;;;;;;40.43;13.67;;;5.60;99.90;;;;;;4934217;29;20198;-59
2022/12/25 08:56:49;;;;;;;44.70;14.93;;;5.60;99.90;;;;;;4925660;29;20199;-57
2022/12/25 08:59:14;;;;;;;38.43;12.57;;;5.70;99.90;;;;;;4935541;29;20481;-59
2022/12/25 09:01:40;;;;;;;35.63;13.00;;;5.80;99.90;;;;;;4936254;29;20178;-63
2022/12/25 09:04:05;;;;;;;35.13;13.00;;;5.80;99.90;;;;;;4931585;29;20194;-59
2022/12/25 09:06:31;;;;;;;35.23;13.30;;;5.90;99.90;;;;;;4930456;29;20202;-59
2022/12/25 09:08:57;;;;;;;38.30;14.63;;;5.80;99.90;;;;;;4918592;29;20198;-59
2022/12/25 09:11:23;;;;;;;38.60;13.17;;;5.90;99.90;;;;;;4918478;29;20191;-59
2022/12/25 09:13:49;;;;;;;40.03;14.00;;;5.90;99.90;;;;;;4927698;29;20194;-57
2022/12/25 09:16:18;;;;;;;39.43;13.00;;;5.90;99.90;;;;;;4927895;29;20756;-59
2022/12/25 09:18:43;;;;;;;35.47;13.70;;;5.90;99.90;;;;;;4937323;29;20241;-59
2022/12/25 09:21:11;;;;;;;33.40;13.97;;;5.90;99.90;;;;;;4929341;29;20611;-59
2022/12/25 09:23:37;;;;;;;32.93;13.13;;;6.00;99.90;;;;;;4923271;29;20206;-59
2022/12/25 09:26:05;;;;;;;36.27;12.90;;;6.00;99.90;;;;;;4930368;29;20450;-59
2022/12/25 09:28:31;;;;;;;38.80;14.47;;;6.10;99.90;;;;;;4938070;29;20206;-59
2022/12/25 09:30:56;;;;;;;36.03;14.00;;;6.10;99.90;;;;;;4926909;29;20450;-58
2022/12/25 09:33:22;;;;;;;31.73;13.13;;;6.20;99.90;;;;;;4932314;29;20804;-59
2022/12/25 09:35:56;;;;;;;34.97;14.07;;;6.20;99.90;;;;;;4930802;29;20270;-59
2022/12/25 09:38:22;;;;;;;33.23;13.90;;;6.20;99.90;;;;;;4929652;29;20245;-59
2022/12/25 09:41:09;;;;;;;38.23;15.10;;;6.20;99.90;;;;;;4934243;29;20480;-60
2022/12/25 09:43:48;;;;;;;26.80;14.13;;;6.30;99.90;;;;;;4918992;29;20818;-59
2022/12/25 09:46:18;;;;;;;35.17;12.93;;;6.30;99.90;;;;;;4932621;29;21336;-59
2022/12/25 09:48:54;;;;;;;34.73;12.43;;;6.30;99.90;;;;;;4935307;29;20485;-58
2022/12/25 09:51:20;;;;;;;42.73;11.73;;;6.40;99.90;;;;;;4934792;29;20421;-59
2022/12/25 09:53:55;;;;;;;37.67;12.70;;;6.40;99.90;;;;;;4928173;29;20430;-59
2022/12/25 09:56:24;;;;;;;30.20;11.23;;;6.40;99.90;;;;;;4936073;29;20445;-59
2022/12/25 09:58:51;;;;;;;30.17;11.30;;;6.40;99.90;;;;;;4917189;29;20485;-59
2022/12/25 10:01:19;;;;;;;31.13;11.40;;;6.40;99.90;;;;;;4937187;29;20916;-59
2022/12/25 10:04:13;;;;;;;35.07;12.03;;;6.40;99.90;;;;;;4923470;29;20960;-58
2022/12/25 10:07:13;;;;;;;29.70;12.20;;;6.40;99.90;;;;;;4917580;29;20756;-58
2022/12/25 10:09:50;;;;;;;31.63;12.53;;;6.40;99.90;;;;;;4919611;29;20485;-59
2022/12/25 10:13:02;;;;;;;29.87;11.83;;;6.50;99.90;;;;;;4935084;29;20435;-58
2022/12/25 10:15:45;;;;;;;37.37;14.80;;;6.50;99.90;;;;;;4903772;29;20501;-58
2022/12/25 10:18:26;;;;;;;32.63;12.90;;;6.60;99.90;;;;;;4917598;29;20459;-58
2022/12/25 10:20:58;;;;;;;33.70;13.10;;;6.70;99.90;;;;;;4935843;29;20502;-58
2022/12/25 10:23:35;;;;;;;32.00;14.17;;;6.70;99.90;;;;;;4935144;29;20465;-58
2022/12/25 10:26:03;;;;;;;27.10;13.03;;;6.80;99.90;;;;;;4936166;29;20410;-58
2022/12/25 10:28:40;;;;;;;33.77;13.57;;;6.70;99.90;;;;;;4918070;29;20490;-58
2022/12/25 10:31:19;;;;;;;31.70;13.53;;;6.80;99.90;;;;;;4921815;29;20449;-58
2022/12/25 10:33:44;;;;;;;24.60;11.70;;;6.80;99.90;;;;;;4919668;29;20451;-58
2022/12/25 10:36:10;;;;;;;34.73;12.30;;;6.80;99.90;;;;;;4929078;29;20434;-58
2022/12/25 10:38:36;;;;;;;29.33;12.17;;;6.80;99.90;;;;;;4922692;29;20217;-58
2022/12/25 10:41:24;;;;;;;26.17;12.40;;;6.90;99.90;;;;;;4926041;29;20255;-58
2022/12/25 10:43:55;;;;;;;35.17;12.87;;;6.90;99.90;;;;;;4895131;29;20201;-58
2022/12/25 10:46:24;;;;;;;34.40;12.37;;;6.90;99.90;;;;;;4929138;29;20747;-59
2022/12/25 10:49:01;;;;;;;26.17;11.53;;;7.00;99.90;;;;;;4935477;29;20818;-58
2022/12/25 10:51:36;;;;;;;33.40;13.80;;;6.90;99.90;;;;;;4934788;29;20449;-58
2022/12/25 10:54:03;;;;;;;26.87;11.63;;;6.90;99.90;;;;;;4943686;29;21262;-58
2022/12/25 10:56:29;;;;;;;24.37;11.17;;;7.00;99.90;;;;;;4928656;29;20455;-58
2022/12/25 10:59:05;;;;;;;33.57;11.70;;;7.10;99.90;;;;;;4920730;29;20520;-58
2022/12/25 11:01:31;;;;;;;25.03;10.73;;;7.10;99.90;;;;;;4929415;29;20955;-58
2022/12/25 11:03:57;;;;;;;21.60;11.03;;;7.10;99.90;;;;;;4931159;29;20454;-58
2022/12/25 11:06:27;;;;;;;35.07;11.60;;;7.10;99.90;;;;;;4925990;29;20194;-58
2022/12/25 11:08:55;;;;;;;28.73;12.13;;;7.10;99.90;;;;;;4925440;29;20497;-59
2022/12/25 11:11:21;;;;;;;32.20;12.40;;;7.20;99.90;;;;;;4928882;29;20778;-58
2022/12/25 11:13:59;;;;;;;26.27;11.83;;;7.20;99.90;;;;;;4932807;29;20940;-58
2022/12/25 11:16:28;;;;;;;25.80;10.90;;;7.20;99.90;;;;;;4916896;29;20948;-58
2022/12/25 11:18:55;;;;;;;27.10;12.10;;;7.30;99.90;;;;;;4932576;29;21076;-58
2022/12/25 11:21:31;;;;;;;25.77;10.70;;;7.30;99.90;;;;;;4908416;29;20443;-58
2022/12/25 11:24:02;;;;;;;23.90;11.17;;;7.40;99.90;;;;;;4932189;29;20437;-58
2022/12/25 11:26:34;;;;;;;25.17;11.73;;;7.40;99.90;;;;;;4933888;29;20437;-58
2022/12/25 11:29:00;;;;;;;23.23;11.60;;;7.50;99.90;;;;;;4925662;29;20569;-57
2022/12/25 11:31:36;;;;;;;25.27;11.33;;;7.50;99.90;;;;;;4929366;29;20548;-58
2022/12/25 11:34:07;;;;;;;30.33;10.87;;;7.50;99.90;;;;;;4927154;29;20196;-58
2022/12/25 11:36:50;;;;;;;22.80;11.50;;;7.50;95.50;;;;;;4916116;29;20409;-58
2022/12/25 11:39:31;;;;;;;27.17;11.20;;;7.50;90.10;;;;;;4920781;29;20546;-59
2022/12/25 11:42:03;;;;;;;22.73;10.70;;;7.40;86.40;;;;;;4926458;29;20450;-59
2022/12/25 11:44:40;;;;;;;22.17;10.20;;;7.40;86.70;;;;;;4941347;29;20524;-58
2022/12/25 11:47:22;;;;;;;24.00;11.73;;;7.40;85.70;;;;;;4937425;29;20512;-58
2022/12/25 11:50:12;;;;;;;28.73;10.50;;;7.40;87.40;;;;;;4923795;29;20494;-58
2022/12/25 11:52:39;;;;;;;19.67;10.00;;;7.40;84.10;;;;;;4924047;29;20859;-58
2022/12/25 11:55:21;;;;;;;30.03;12.10;;;7.50;89.50;;;;;;4932230;29;20442;-58
2022/12/25 11:57:52;;;;;;;24.03;10.03;;;7.50;86.10;;;;;;4925050;29;20484;-58
2022/12/25 12:00:18;;;;;;;19.53;9.90;;;7.40;80.30;;;;;;4927538;29;20462;-58
2022/12/25 12:02:56;;;;;;;36.10;10.57;;;7.50;81.70;;;;;;4931880;29;20446;-58
2022/12/25 12:06:00;;;;;;;23.50;10.70;;;7.50;84.40;;;;;;4929169;29;20900;-58
2022/12/25 12:08:26;;;;;;;31.20;10.63;;;7.50;79.30;;;;;;4875708;29;20459;-58
2022/12/25 12:11:15;;;;;;;23.00;11.10;;;7.50;79.60;;;;;;4920890;29;20450;-59
2022/12/25 12:14:00;;;;;;;31.17;10.10;;;7.50;81.30;;;;;;4927339;29;20186;-58
2022/12/25 12:16:26;;;;;;;24.73;11.60;;;7.50;85.60;;;;;;4933793;29;20441;-58
2022/12/25 12:18:51;;;;;;;32.33;11.17;;;7.60;87.10;;;;;;4934581;29;20821;-58
2022/12/25 12:21:17;;;;;;;24.33;10.73;;;7.60;87.00;;;;;;4919999;29;20197;-58
2022/12/25 12:24:08;;;;;;;26.60;12.13;;;7.60;90.90;;;;;;4934404;29;20221;-58
2022/12/25 12:26:38;;;;;;;25.33;11.00;;;7.50;91.00;;;;;;4924053;29;20647;-58
2022/12/25 12:29:16;;;;;;;24.53;10.20;;;7.60;94.20;;;;;;4923869;29;20791;-58
2022/12/25 12:31:46;;;;;;;34.87;11.50;;;7.60;90.80;;;;;;4932314;29;20954;-56
2022/12/25 12:34:35;;;;;;;25.73;11.20;;;7.60;84.10;;;;;;4933954;29;20434;-58
2022/12/25 12:37:06;;;;;;;28.50;10.33;;;7.50;72.60;;;;;;4933742;29;20402;-58
2022/12/25 12:39:38;;;;;;;24.50;10.57;;;7.50;73.60;;;;;;4915234;29;20992;-59
2022/12/25 12:42:31;;;;;;;31.00;10.50;;;7.50;71.00;;;;;;4916399;29;20447;-58
2022/12/25 12:45:16;;;;;;;27.10;10.40;;;7.50;75.30;;;;;;4929970;29;20478;-57
2022/12/25 12:47:45;;;;;;;22.00;10.20;;;7.60;86.60;;;;;;4923465;29;20439;-58
2022/12/25 12:50:34;;;;;;;25.90;11.17;;;7.60;91.80;;;;;;4928241;29;20819;-58
2022/12/25 12:53:23;;;;;;;19.60;10.57;;;7.60;93.10;;;;;;4932378;29;20444;-58
2022/12/25 12:55:50;;;;;;;34.03;11.20;;;7.60;89.10;;;;;;4932226;29;20970;-58
2022/12/25 12:58:31;;;;;;;27.50;11.57;;;7.60;87.30;;;;;;4926436;29;20536;-58
2022/12/25 13:01:22;;;;;;;26.20;10.73;;;7.70;83.10;;;;;;4933835;29;20442;-58
2022/12/25 13:04:06;;;;;;;29.43;12.20;;;7.60;78.10;;;;;;4928446;29;20858;-58
2022/12/25 13:06:54;;;;;;;27.30;11.23;;;7.60;78.10;;;;;;4922090;29;20411;-58
2022/12/25 13:09:44;;;;;;;24.13;11.57;;;7.60;80.00;;;;;;4930752;29;20473;-57
2022/12/25 13:12:11;;;;;;;25.77;11.77;;;7.60;81.20;;;;;;4934989;29;20476;-58
2022/12/25 13:14:37;;;;;;;23.70;12.40;;;7.60;86.40;;;;;;4925441;29;20485;-58
2022/12/25 13:17:06;;;;;;;30.20;11.57;;;7.70;85.80;;;;;;4924469;29;20950;-57
2022/12/25 13:19:34;;;;;;;27.83;10.77;;;7.70;86.40;;;;;;4935495;29;20484;-57
2022/12/25 13:22:03;;;;;;;33.00;12.47;;;7.70;81.50;;;;;;4927589;29;20909;-53
2022/12/25 13:24:34;;;;;;;21.57;11.80;;;7.70;69.80;;;;;;4935269;29;20522;-57
2022/12/25 13:26:59;;;;;;;31.20;13.17;;;7.70;63.30;;;;;;4931968;29;20457;-58
2022/12/25 13:29:29;;;;;;;32.77;13.37;;;7.70;57.00;;;;;;4946038;28;20457;-58
2022/12/25 13:31:59;;;;;;;31.03;12.77;;;7.70;53.40;;;;;;4936563;29;20182;-58
2022/12/25 13:34:40;;;;;;;31.97;12.73;;;7.70;55.40;;;;;;4915993;29;20470;-58
2022/12/25 13:37:08;;;;;;;31.67;14.03;;;7.60;49.30;;;;;;4933012;29;20529;-58
2022/12/25 13:39:35;;;;;;;27.50;13.47;;;7.60;46.90;;;;;;4935236;29;20951;-57
2022/12/25 13:42:05;;;;;;;31.80;14.00;;;7.60;44.30;;;;;;4928733;29;20525;-58
2022/12/25 13:44:40;;;;;;;30.37;14.57;;;7.60;37.60;;;;;;4931811;29;20438;-57
2022/12/25 13:47:34;;;;;;;32.90;14.67;;;7.50;34.40;;;;;;4932918;29;20437;-57
2022/12/25 13:50:25;;;;;;;39.43;15.67;;;7.50;35.30;;;;;;4924836;29;20485;-57
2022/12/25 13:52:51;;;;;;;37.73;15.87;;;7.50;36.50;;;;;;4933365;29;20450;-61
2022/12/25 13:55:20;;;;;;;32.17;15.03;;;7.50;39.90;;;;;;4933337;29;20453;-58
2022/12/25 13:57:52;;;;;;;41.03;15.03;;;7.40;36.30;;;;;;4934821;29;20469;-57
2022/12/25 14:00:20;;;;;;;36.90;15.23;;;7.40;37.40;;;;;;4933832;29;20449;-58
2022/12/25 14:02:46;;;;;;;30.37;15.37;;;7.40;42.70;;;;;;4934991;29;20503;-58
2022/12/25 14:05:34;;;;;;;32.73;15.30;;;7.40;45.00;;;;;;4932533;29;20446;-58
2022/12/25 14:08:02;;;;;;;35.50;16.10;;;7.30;51.00;;;;;;4917219;29;20538;-57
2022/12/25 14:10:32;;;;;;;34.37;15.77;;;7.30;53.30;;;;;;4926123;29;20450;-58
2022/12/25 14:13:03;;;;;;;36.53;16.10;;;7.30;58.10;;;;;;4930758;29;20456;-57
2022/12/25 14:15:31;;;;;;;31.10;14.50;;;7.30;68.80;;;;;;4917811;29;20459;-61
2022/12/25 14:17:58;;;;;;;32.53;15.20;;;7.30;78.90;;;;;;4930946;29;20967;-58
2022/12/25 14:20:27;;;;;;;29.30;15.47;;;7.30;85.10;;;;;;4926148;29;20461;-58
2022/12/25 14:22:56;;;;;;;33.63;15.23;;;7.30;91.30;;;;;;4922412;29;20442;-57
2022/12/25 14:25:42;;;;;;;33.10;15.90;;;7.40;93.60;;;;;;4934071;29;20442;-57
2022/12/25 14:28:17;;;;;;;32.50;15.27;;;7.40;87.50;;;;;;4918405;29;20538;-58
2022/12/25 14:30:43;;;;;;;39.70;15.27;;;7.30;76.70;;;;;;4925422;29;20992;-58
2022/12/25 14:33:16;;;;;;;37.80;15.70;;;7.30;75.00;;;;;;4920727;29;20909;-59
2022/12/25 14:35:43;;;;;;;29.87;15.47;;;7.30;78.20;;;;;;4932358;29;20448;-58
2022/12/25 14:38:25;;;;;;;40.53;15.27;;;7.30;75.60;;;;;;4934101;29;20526;-58